createdAt,value
2018-06-17T00:00:27.667Z,6.20
2018-06-17T00:04:31.149Z,5.80
2018-06-17T00:08:34.577Z,5.80
2018-06-17T00:12:38.000Z,6.07
2018-06-17T00:16:41.430Z,5.73
2018-06-17T00:20:44.841Z,6.37
2018-06-17T00:24:48.288Z,6.33
2018-06-17T00:28:51.734Z,6.90
2018-06-17T00:32:55.156Z,6.90
2018-06-17T00:36:58.577Z,6.90
2018-06-17T00:41:02.050Z,6.80
2018-06-17T00:45:05.635Z,7.33
2018-06-17T00:49:09.057Z,6.93
2018-06-17T00:53:12.467Z,8.00
2018-06-17T00:57:27.261Z,7.70
2018-06-17T01:01:30.684Z,8.10
2018-06-17T01:05:34.125Z,8.40
2018-06-17T01:09:37.550Z,8.50
2018-06-17T01:13:40.989Z,8.47
2018-06-17T01:17:44.407Z,8.70
2018-06-17T01:21:47.852Z,8.07
2018-06-17T01:25:51.275Z,8.70
2018-06-17T01:29:54.704Z,8.73
2018-06-17T01:33:58.123Z,8.90
2018-06-17T01:38:01.618Z,8.50
2018-06-17T01:42:05.059Z,9.00
2018-06-17T01:46:08.532Z,8.07
2018-06-17T01:50:11.962Z,8.73
2018-06-17T01:54:15.401Z,8.90
2018-06-17T01:58:18.872Z,8.70
2018-06-17T02:02:22.298Z,8.63
2018-06-17T02:06:31.098Z,8.80
2018-06-17T02:11:37.597Z,9.30
2018-06-17T02:15:40.989Z,9.00
2018-06-17T02:19:44.425Z,8.70
2018-06-17T02:23:47.871Z,9.07
2018-06-17T02:27:51.311Z,8.90
2018-06-17T02:31:54.753Z,8.83
2018-06-17T02:35:58.219Z,9.30
2018-06-17T02:40:01.633Z,9.73
2018-06-17T02:44:05.102Z,9.20
2018-06-17T02:48:13.696Z,9.30
2018-06-17T02:52:22.522Z,8.93
2018-06-17T02:56:25.964Z,9.60
2018-06-17T03:00:29.397Z,9.30
2018-06-17T03:04:32.827Z,8.63
2018-06-17T03:08:42.726Z,8.90
2018-06-17T03:12:46.163Z,8.20
2018-06-17T03:16:49.594Z,8.33
2018-06-17T03:20:52.998Z,8.60
2018-06-17T03:25:01.596Z,8.50
2018-06-17T03:29:10.132Z,8.53
2018-06-17T03:34:17.528Z,8.83
2018-06-17T03:38:20.956Z,8.37
2018-06-17T03:42:24.402Z,8.77
2018-06-17T03:46:27.870Z,8.83
2018-06-17T03:50:31.273Z,8.87
2018-06-17T03:54:34.694Z,8.90
2018-06-17T03:58:38.152Z,8.50
2018-06-17T04:02:42.425Z,8.40
2018-06-17T04:06:45.854Z,8.70
2018-06-17T04:10:49.315Z,9.00
2018-06-17T04:14:52.752Z,9.00
2018-06-17T04:18:56.153Z,9.10
2018-06-17T04:22:59.590Z,8.53
2018-06-17T04:27:03.034Z,8.50
2018-06-17T04:31:06.551Z,8.70
2018-06-17T04:35:10.005Z,8.53
2018-06-17T04:39:13.460Z,9.03
2018-06-17T04:43:16.908Z,8.77
2018-06-17T04:47:20.355Z,8.63
2018-06-17T04:51:23.842Z,8.50
2018-06-17T04:55:27.271Z,8.40
2018-06-17T04:59:30.700Z,8.13
2018-06-17T05:03:34.134Z,8.20
2018-06-17T05:07:37.570Z,8.20
2018-06-17T05:11:41.055Z,8.53
2018-06-17T05:15:44.474Z,8.43
2018-06-17T05:19:47.936Z,8.20
2018-06-17T05:23:51.399Z,7.87
2018-06-17T05:27:54.831Z,7.63
2018-06-17T05:31:58.402Z,7.23
2018-06-17T05:36:01.871Z,8.30
2018-06-17T05:40:05.316Z,7.30
2018-06-17T05:44:08.780Z,7.80
2018-06-17T05:48:12.230Z,7.62
2018-06-17T05:52:15.693Z,8.00
2018-06-17T05:56:20.098Z,7.05
2018-06-17T06:00:23.522Z,7.42
2018-06-17T06:04:26.940Z,7.30
2018-06-17T06:08:30.756Z,7.22
2018-06-17T06:12:34.189Z,7.08
2018-06-17T06:16:37.612Z,7.15
2018-06-17T06:20:41.084Z,7.08
2018-06-17T06:24:44.572Z,7.00
2018-06-17T06:28:47.971Z,6.47
2018-06-17T06:32:51.405Z,6.65
2018-06-17T06:36:54.836Z,6.28
2018-06-17T06:40:58.294Z,6.30
2018-06-17T06:45:01.724Z,6.08
2018-06-17T06:49:05.179Z,6.87
2018-06-17T06:53:08.631Z,6.00
2018-06-17T06:57:12.039Z,6.20
2018-06-17T07:01:25.407Z,5.97
2018-06-17T07:05:40.392Z,6.45
2018-06-17T07:09:56.900Z,6.05
2018-06-17T07:14:00.331Z,5.95
2018-06-17T07:18:15.152Z,6.37
2018-06-17T07:22:18.584Z,6.53
2018-06-17T07:26:39.626Z,5.92
2018-06-17T07:30:43.082Z,6.50
2018-06-17T07:34:46.830Z,6.65
2018-06-17T07:38:50.265Z,6.80
2018-06-17T07:42:53.750Z,6.87
2018-06-17T07:46:57.175Z,6.58
2018-06-17T07:51:11.853Z,6.58
2018-06-17T07:55:15.314Z,6.67
2018-06-17T07:59:18.766Z,6.60
2018-06-17T08:03:22.202Z,6.60
2018-06-17T08:07:25.659Z,6.17
2018-06-17T08:11:29.124Z,6.08
2018-06-17T08:15:32.574Z,6.30
2018-06-17T08:19:36.150Z,6.12
2018-06-17T08:23:39.569Z,6.50
2018-06-17T08:27:43.055Z,6.25
2018-06-17T08:31:46.465Z,7.08
2018-06-17T08:35:49.883Z,6.08
2018-06-17T08:39:53.343Z,6.10
2018-06-17T08:43:56.779Z,6.10
2018-06-17T08:48:00.187Z,5.58
2018-06-17T08:52:03.649Z,5.55
2018-06-17T08:56:07.085Z,5.60
2018-06-17T09:00:10.564Z,5.33
2018-06-17T09:04:14.001Z,5.67
2018-06-17T09:08:17.430Z,5.50
2018-06-17T09:12:20.878Z,5.45
2018-06-17T09:16:24.909Z,5.78
2018-06-17T09:20:28.363Z,5.62
2018-06-17T09:24:31.771Z,4.70
2018-06-17T09:28:35.212Z,5.10
2018-06-17T09:32:38.659Z,4.78
2018-06-17T09:36:42.084Z,5.05
2018-06-17T09:40:45.514Z,4.70
2018-06-17T09:44:48.939Z,3.85
2018-06-17T09:48:52.420Z,3.67
2018-06-17T09:52:55.822Z,3.85
2018-06-17T09:56:59.287Z,3.98
2018-06-17T10:01:02.734Z,3.67
2018-06-17T10:05:06.239Z,3.67
2018-06-17T10:09:10.510Z,4.05
2018-06-17T10:13:14.537Z,3.25
2018-06-17T10:17:17.946Z,3.52
2018-06-17T10:21:21.398Z,3.60
2018-06-17T10:25:24.900Z,4.00
2018-06-17T10:29:28.361Z,3.80
2018-06-17T10:33:32.097Z,3.87
2018-06-17T10:37:35.549Z,3.92
2018-06-17T10:41:38.974Z,4.20
2018-06-17T10:45:42.766Z,4.10
2018-06-17T10:49:46.188Z,3.58
2018-06-17T10:53:49.612Z,3.87
2018-06-17T10:57:53.045Z,4.35
2018-06-17T11:01:56.508Z,3.67
2018-06-17T11:05:59.951Z,3.55
2018-06-17T11:10:03.853Z,3.90
2018-06-17T11:14:07.287Z,4.15
2018-06-17T11:18:10.731Z,3.85
2018-06-17T11:22:14.161Z,3.60
2018-06-17T11:26:17.601Z,3.72
2018-06-17T11:30:21.384Z,3.70
2018-06-17T11:34:24.802Z,3.77
2018-06-17T11:38:28.497Z,4.03
2018-06-17T11:42:31.947Z,4.20
2018-06-17T11:46:36.288Z,4.20
2018-06-17T11:50:39.716Z,3.87
2018-06-17T11:54:43.168Z,3.98
2018-06-17T11:58:46.605Z,4.05
2018-06-17T12:02:50.043Z,3.90
2018-06-17T12:06:53.559Z,3.80
2018-06-17T12:10:57.060Z,3.80
2018-06-17T12:15:00.497Z,3.65
2018-06-17T12:19:04.355Z,3.83
2018-06-17T12:23:07.775Z,3.70
2018-06-17T12:27:11.197Z,3.37
2018-06-17T12:31:14.622Z,3.58
2018-06-17T12:35:18.079Z,3.90
2018-06-17T12:39:21.521Z,3.75
2018-06-17T12:43:24.927Z,4.05
2018-06-17T12:47:28.383Z,3.70
2018-06-17T12:51:31.839Z,3.55
2018-06-17T12:55:35.259Z,3.85
2018-06-17T12:59:38.667Z,3.77
2018-06-17T13:03:42.069Z,3.50
2018-06-17T13:07:45.879Z,3.95
2018-06-17T13:11:49.338Z,3.60
2018-06-17T13:15:52.798Z,3.62
2018-06-17T13:19:56.204Z,3.90
2018-06-17T13:23:59.727Z,3.70
2018-06-17T13:28:03.153Z,4.08
2018-06-17T13:32:06.589Z,3.67
2018-06-17T13:36:10.037Z,3.80
2018-06-17T13:40:13.501Z,3.65
2018-06-17T13:44:16.984Z,4.00
2018-06-17T13:48:20.401Z,3.85
2018-06-17T13:52:23.891Z,3.70
2018-06-17T13:56:27.315Z,3.55
2018-06-17T14:00:30.721Z,3.80
2018-06-17T14:04:34.164Z,3.70
2018-06-17T14:08:37.600Z,3.80
2018-06-17T14:12:41.030Z,3.98
2018-06-17T14:16:44.470Z,3.92
2018-06-17T14:20:47.916Z,3.92
2018-06-17T14:24:51.330Z,4.03
2018-06-17T14:28:54.765Z,4.03
2018-06-17T14:32:58.220Z,3.95
2018-06-17T14:37:01.660Z,3.95
2018-06-17T14:41:10.400Z,4.33
2018-06-17T14:45:19.074Z,4.15
2018-06-17T14:49:27.582Z,4.30
2018-06-17T14:53:30.974Z,4.17
2018-06-17T14:57:34.396Z,4.35
2018-06-17T15:01:37.896Z,4.15
2018-06-17T15:05:41.334Z,4.33
2018-06-17T15:09:44.776Z,4.70
2018-06-17T15:13:48.271Z,4.70
2018-06-17T15:17:51.730Z,4.72
2018-06-17T15:21:55.171Z,4.10
2018-06-17T15:25:58.590Z,4.80
2018-06-17T15:30:01.975Z,5.10
2018-06-17T15:34:10.639Z,4.60
2018-06-17T15:38:19.380Z,5.10
2018-06-17T15:42:22.798Z,5.10
2018-06-17T15:46:26.873Z,5.08
2018-06-17T15:50:30.352Z,4.97
2018-06-17T15:54:33.749Z,5.12
2018-06-17T15:58:37.170Z,4.50
2018-06-17T16:02:40.606Z,5.00
2018-06-17T16:06:44.019Z,4.80
2018-06-17T16:10:47.445Z,5.33
2018-06-17T16:14:56.232Z,5.62
2018-06-17T16:19:04.997Z,5.22
2018-06-17T16:23:08.426Z,5.53
2018-06-17T16:27:11.858Z,5.33
2018-06-17T16:31:15.315Z,5.70
2018-06-17T16:35:18.747Z,5.75
2018-06-17T16:39:22.152Z,5.92
2018-06-17T16:43:25.612Z,5.42
2018-06-17T16:47:29.047Z,5.45
2018-06-17T16:51:37.800Z,6.37
2018-06-17T16:55:46.371Z,6.00
2018-06-17T17:00:09.721Z,5.87
2018-06-17T17:04:13.214Z,6.35
2018-06-17T17:08:16.638Z,5.95
2018-06-17T17:12:20.073Z,6.08
2018-06-17T17:16:23.501Z,6.53
2018-06-17T17:20:26.985Z,6.15
2018-06-17T17:24:30.413Z,6.15
2018-06-17T17:28:33.858Z,5.97
2018-06-17T17:32:42.714Z,5.67
2018-06-17T17:36:51.431Z,5.35
2018-06-17T17:40:57.398Z,6.08
2018-06-17T17:45:05.363Z,5.90
2018-06-17T17:49:08.850Z,5.60
2018-06-17T17:53:12.257Z,5.72
2018-06-17T17:57:15.965Z,5.40
2018-06-17T18:01:19.413Z,6.05
2018-06-17T18:05:22.862Z,5.67
2018-06-17T18:09:26.316Z,5.53
2018-06-17T18:13:29.739Z,5.78
2018-06-17T18:17:33.151Z,6.00
2018-06-17T18:21:36.581Z,5.45
2018-06-17T18:25:45.344Z,5.15
2018-06-17T18:29:54.148Z,5.53
2018-06-17T18:34:02.959Z,5.37
2018-06-17T18:38:06.383Z,5.47
2018-06-17T18:42:09.801Z,5.15
2018-06-17T18:46:14.091Z,5.22
2018-06-17T18:50:17.523Z,5.20
2018-06-17T18:54:20.961Z,5.35
2018-06-17T18:58:24.590Z,5.25
2018-06-17T19:02:28.055Z,4.90
2018-06-17T19:06:31.520Z,5.67
2018-06-17T19:10:40.323Z,5.10
2018-06-17T19:14:48.970Z,5.08
2018-06-17T19:18:52.416Z,5.28
2018-06-17T19:22:55.864Z,5.35
2018-06-17T19:26:59.281Z,4.95
2018-06-17T19:31:02.698Z,5.17
2018-06-17T19:35:06.247Z,4.95
2018-06-17T19:39:10.747Z,4.92
2018-06-17T19:43:14.175Z,4.70
2018-06-17T19:47:17.646Z,4.95
2018-06-17T19:51:26.190Z,5.50
2018-06-17T19:55:34.814Z,5.03
2018-06-17T19:59:43.359Z,5.30
2018-06-17T20:03:46.818Z,5.47
2018-06-17T20:07:50.290Z,5.45
2018-06-17T20:11:53.730Z,4.87
2018-06-17T20:15:57.208Z,5.05
2018-06-17T20:20:00.651Z,5.37
2018-06-17T20:24:04.071Z,5.40
2018-06-17T20:28:07.506Z,5.50
2018-06-17T20:32:16.167Z,5.33
2018-06-17T20:37:26.565Z,5.50
2018-06-17T20:41:35.232Z,5.70
2018-06-17T20:45:38.706Z,5.30
2018-06-17T20:49:42.131Z,5.50
2018-06-17T20:53:45.550Z,5.90
2018-06-17T20:57:49.091Z,5.70
2018-06-17T21:01:52.541Z,6.05
2018-06-17T21:05:55.975Z,6.03
2018-06-17T21:09:59.402Z,5.58
2018-06-17T21:14:02.818Z,5.72
2018-06-17T21:18:06.376Z,6.55
2018-06-17T21:22:15.122Z,6.83
2018-06-17T21:26:23.667Z,6.60
2018-06-17T21:30:27.132Z,6.62
2018-06-17T21:34:30.543Z,6.53
2018-06-17T21:38:33.974Z,6.53
2018-06-17T21:42:37.393Z,6.80
2018-06-17T21:46:40.801Z,6.83
2018-06-17T21:50:44.272Z,6.80
2018-06-17T21:54:47.714Z,6.47
2018-06-17T21:58:51.124Z,6.78
2018-06-17T22:02:54.542Z,6.92
2018-06-17T22:06:58.053Z,7.10
2018-06-17T22:11:06.714Z,7.08
2018-06-17T22:15:15.178Z,7.45
2018-06-17T22:19:18.596Z,7.40
2018-06-17T22:23:22.038Z,7.45
2018-06-17T22:27:25.476Z,6.62
2018-06-17T22:31:28.909Z,7.12
2018-06-17T22:35:32.342Z,7.22
2018-06-17T22:39:36.026Z,7.45
2018-06-17T22:43:39.467Z,7.30
2018-06-17T22:47:48.324Z,6.62
2018-06-17T22:51:51.753Z,6.97
2018-06-17T22:55:55.191Z,7.70
2018-06-17T23:00:04.026Z,7.17
2018-06-17T23:04:12.882Z,7.30
2018-06-17T23:08:21.716Z,6.95
2018-06-17T23:12:25.153Z,7.20
2018-06-17T23:16:28.589Z,7.60
2018-06-17T23:20:32.067Z,7.33
2018-06-17T23:24:35.477Z,7.17
2018-06-17T23:28:38.911Z,7.30
2018-06-17T23:32:42.366Z,7.35
2018-06-17T23:36:45.800Z,7.00
2018-06-17T23:40:49.223Z,7.33
2018-06-17T23:44:52.675Z,7.20
2018-06-17T23:49:01.300Z,7.60
2018-06-17T23:53:10.076Z,8.00
2018-06-17T23:57:13.558Z,7.13
